Impacts TAF Board
For situational awareness. Not to be used for flight planning purposes.
IDs:

KHDN - Hayden/Yampa Valley, CO, US

Issued at 1134 UTC 15 Jul 2020
Updated at 1317 UTC 15 Jul 2020
Potential Impact None Slight Moderate High
Time1256Z 15/14Z 15/15Z 15/16Z 15/17Z 15/18Z 15/19Z 15/20Z 15/21Z 15/22Z 15/23Z 16/00Z 16/01Z 16/02Z>>
Type OBS PRVL PRVL PRVL PRVL PRVL PRVL PRVL PRVL PRVL PRVL PRVL PRVL PRVL
VIS 10 >6 >6 >6 >6 >6 >6 >6 >6 >6 >6 >6 >6 >6
CIG -- -- -- -- -- -- -- -- -- -- -- -- -- --
Cover CLR FEW FEW FEW FEW FEW FEW FEW FEW FEW FEW FEW FEW FEW
FltCat VFR VFR VFR VFR VFR VFR VFR VFR VFR VFR VFR VFR VFR VFR
WX -- -- -- -- -- -- -- -- -- -- -- -- -- --
WDir 100 120 120 120 120 120 300 300 300 300 300 300 300 300
WSpd 6 5 5 5 5 5 7 7 7 7 7 7 7 7
WGst -- -- -- -- -- -- 15 15 15 15 15 15 15 15
Raw TAF
KHDN 151134Z 1512/1612 12005KT P6SM FEW250
  FM151900 30007G15KT P6SM FEW250
  FM160300 12006KT P6SM FEW250


Raw METAR
KHDN 151256Z AUTO 10006KT 10SM CLR 11/08 A3028 RMK AO2 SLP176 T01110078
KHDN 151156Z AUTO 10006KT 10SM CLR 10/07 A3026 RMK AO2 SLP167 T01000072 10167 20094 51013
KHDN 151056Z AUTO 12006KT 10SM CLR 10/07 A3025 RMK AO2 SLP160 T01000072

METAR Board
Radar Display
Forecast Discussion
For situational awareness. Not to be used for flight planning purposes.